Time;durP1;ratioP1;P1;durP2;ratioP2;P2;SDS_P1;SDS_P2;PMS_P1;PMS_P2;Temp;Humidity;BMP_temperature;BMP_pressure;BME280_temperature;BME280_humidity;BME280_pressure;Samples;Min_cycle;Max_cycle;Signal;HPM_P1;HPM_P2
2022/01/28 00:01:02;;;;;;;12.93;2.83;;;4.20;99.90;;;;;;5011553;28;20422;-50
2022/01/28 00:03:30;;;;;;;19.58;2.58;;;4.20;99.90;;;;;;5012823;28;20555;-50
2022/01/28 00:05:56;;;;;;;13.98;2.08;;;4.20;99.90;;;;;;5019384;28;20049;-47
2022/01/28 00:08:21;;;;;;;26.65;3.28;;;4.20;99.90;;;;;;5013162;28;20029;-49
2022/01/28 00:10:47;;;;;;;23.75;3.28;;;4.20;99.90;;;;;;5015792;28;20030;-50
2022/01/28 00:13:20;;;;;;;19.85;2.85;;;4.10;99.90;;;;;;5012316;28;20038;-50
2022/01/28 00:16:01;;;;;;;20.92;3.35;;;4.10;99.90;;;;;;5012740;28;20073;-49
2022/01/28 00:40:27;;;;;;;26.83;3.45;;;4.30;99.90;;;;;;5012181;28;20054;-47
2022/01/28 00:42:53;;;;;;;33.15;3.38;;;4.30;99.90;;;;;;5012005;28;20049;-50
2022/01/28 00:45:19;;;;;;;24.00;4.20;;;4.30;99.90;;;;;;5011869;28;20030;-52
2022/01/28 00:47:47;;;;;;;24.55;3.45;;;4.40;99.90;;;;;;5012390;28;20449;-52
2022/01/28 00:50:13;;;;;;;25.40;3.72;;;4.40;99.90;;;;;;5011870;28;20048;-51
2022/01/28 00:52:39;;;;;;;27.13;4.03;;;4.50;99.90;;;;;;5011799;28;20042;-52
2022/01/28 00:55:05;;;;;;;27.92;4.28;;;4.50;99.90;;;;;;5012284;28;20042;-51
2022/01/28 00:57:31;;;;;;;23.60;3.13;;;4.60;99.90;;;;;;5012067;28;20048;-53
2022/01/28 00:59:57;;;;;;;27.15;3.53;;;4.60;99.90;;;;;;4994147;28;20049;-50
2022/01/28 01:02:22;;;;;;;19.98;3.42;;;4.60;99.90;;;;;;5011442;28;20038;-51
2022/01/28 01:04:48;;;;;;;18.90;2.60;;;4.50;99.90;;;;;;5011614;28;20045;-49
2022/01/28 01:07:14;;;;;;;20.90;3.30;;;4.50;99.90;;;;;;5010976;28;20061;-48
2022/01/28 01:09:40;;;;;;;22.13;2.90;;;4.40;99.90;;;;;;4993990;28;20046;-48
2022/01/28 01:12:06;;;;;;;26.08;2.97;;;4.30;99.90;;;;;;5011302;28;20067;-50
2022/01/28 01:14:32;;;;;;;21.63;3.10;;;4.30;99.90;;;;;;5011212;28;20038;-51
2022/01/28 01:19:47;;;;;;;22.40;3.17;;;4.30;99.90;;;;;;5010923;28;20052;-48
2022/01/28 01:22:12;;;;;;;21.50;3.63;;;4.30;99.90;;;;;;5011349;28;20053;-51
2022/01/28 01:24:48;;;;;;;26.88;4.68;;;4.30;99.90;;;;;;5018209;28;20042;-52
2022/01/28 01:27:14;;;;;;;28.95;4.38;;;4.30;99.90;;;;;;5006702;28;20103;-51
2022/01/28 01:29:44;;;;;;;30.20;3.75;;;5.30;99.90;;;;;;5031087;28;20037;-50
2022/01/28 01:32:13;;;;;;;24.10;4.22;;;4.50;99.90;;;;;;5031241;28;20033;-49
2022/01/28 01:34:39;;;;;;;30.60;4.30;;;4.60;99.90;;;;;;5031266;28;20570;-51
2022/01/28 01:37:06;;;;;;;27.08;3.83;;;4.70;99.90;;;;;;5030949;28;20067;-52
2022/01/28 01:39:35;;;;;;;31.90;4.05;;;4.70;99.90;;;;;;5030714;28;20041;-51
2022/01/28 01:42:12;;;;;;;24.50;4.38;;;4.70;99.90;;;;;;5030857;28;20556;-52
2022/01/28 01:45:36;;;;;;;28.48;3.72;;;4.70;99.90;;;;;;5030822;28;20119;-51
2022/01/28 01:52:44;;;;;;;26.10;3.72;;;4.50;99.90;;;;;;5030348;28;20064;-50
2022/01/28 01:55:10;;;;;;;24.10;4.13;;;4.50;99.90;;;;;;5030745;28;20041;-52
2022/01/28 01:57:37;;;;;;;21.88;3.17;;;4.40;99.90;;;;;;5030934;28;20053;-47
2022/01/28 02:00:05;;;;;;;20.38;3.30;;;4.40;99.90;;;;;;5030793;28;20112;-51
2022/01/28 02:02:31;;;;;;;29.85;3.22;;;4.40;99.90;;;;;;5028689;28;20072;-52
2022/01/28 02:04:56;;;;;;;22.73;3.65;;;4.40;99.90;;;;;;5030434;28;20080;-51
2022/01/28 02:07:23;;;;;;;29.05;4.20;;;4.40;99.90;;;;;;5030501;28;20029;-51
2022/01/28 02:09:49;;;;;;;22.73;3.53;;;4.40;99.90;;;;;;5012868;28;20038;-49
2022/01/28 02:12:14;;;;;;;26.83;3.33;;;4.50;99.90;;;;;;5012857;28;20087;-49
2022/01/28 02:14:40;;;;;;;23.75;3.03;;;4.50;99.90;;;;;;5030518;28;20040;-50
2022/01/28 02:17:07;;;;;;;25.13;3.25;;;4.50;99.90;;;;;;5030882;28;20037;-53
2022/01/28 02:19:32;;;;;;;20.23;3.03;;;4.70;99.90;;;;;;5012899;28;20095;-49
2022/01/28 02:21:58;;;;;;;24.83;3.72;;;4.50;99.90;;;;;;5030794;28;20041;-51
2022/01/28 02:24:40;;;;;;;20.83;2.60;;;4.50;99.90;;;;;;5031894;28;20091;-51
2022/01/28 02:27:06;;;;;;;17.08;2.78;;;4.40;99.90;;;;;;5032115;28;20574;-51
2022/01/28 02:29:34;;;;;;;22.73;2.70;;;4.40;99.90;;;;;;5024777;28;20128;-49
2022/01/28 02:32:02;;;;;;;24.35;2.88;;;4.30;99.90;;;;;;5021637;28;20049;-50
2022/01/28 02:34:28;;;;;;;20.42;2.60;;;4.30;99.90;;;;;;5015039;28;20049;-53
2022/01/28 02:36:56;;;;;;;23.92;2.88;;;4.20;99.90;;;;;;4997796;28;20033;-51
2022/01/28 02:39:21;;;;;;;13.85;2.38;;;4.20;99.90;;;;;;5014615;28;20440;-50
2022/01/28 02:41:51;;;;;;;14.57;2.13;;;4.20;99.90;;;;;;5016114;28;20121;-52
2022/01/28 02:46:55;;;;;;;17.20;2.53;;;4.20;99.90;;;;;;5033835;28;20045;-51
2022/01/28 02:49:24;;;;;;;21.75;3.50;;;4.30;99.90;;;;;;5032548;28;20491;-50
2022/01/28 02:51:50;;;;;;;22.65;2.92;;;4.30;99.90;;;;;;5033896;28;20032;-55
2022/01/28 02:54:17;;;;;;;14.55;2.70;;;4.30;99.90;;;;;;5033269;28;20037;-49
2022/01/28 02:56:51;;;;;;;23.65;2.92;;;4.30;99.90;;;;;;5028894;28;20477;-50
2022/01/28 02:59:17;;;;;;;;;;;4.40;99.90;;;;;;5007709;28;20049;-48
2022/01/28 03:01:43;;;;;;;21.65;3.78;;;4.60;99.90;;;;;;5027638;28;20395;-50
2022/01/28 03:04:12;;;;;;;17.08;2.65;;;4.50;99.90;;;;;;5014973;28;20034;-53
2022/01/28 03:06:38;;;;;;;19.83;2.97;;;4.50;99.90;;;;;;5032080;28;20513;-53
2022/01/28 03:09:20;;;;;;;17.50;2.47;;;4.60;99.90;;;;;;5020932;28;20092;-51
2022/01/28 03:11:58;;;;;;;17.98;2.42;;;4.60;99.90;;;;;;5015212;28;20554;-48
2022/01/28 03:14:37;;;;;;;22.50;2.50;;;4.60;99.90;;;;;;5016532;28;20388;-53
2022/01/28 03:17:15;;;;;;;23.73;2.85;;;4.60;99.90;;;;;;5020662;28;20048;-52
2022/01/28 03:19:54;;;;;;;19.60;2.92;;;4.60;99.90;;;;;;5004893;28;20069;-53
2022/01/28 03:22:20;;;;;;;21.77;2.88;;;4.60;99.90;;;;;;5012514;28;20045;-51
2022/01/28 03:24:52;;;;;;;20.83;3.17;;;4.60;99.90;;;;;;5025670;28;20042;-53
2022/01/28 03:27:39;;;;;;;17.00;2.85;;;4.60;99.90;;;;;;5024863;28;20551;-50
2022/01/28 03:30:04;;;;;;;21.38;2.83;;;4.60;99.90;;;;;;5024682;28;20073;-50
2022/01/28 03:32:30;;;;;;;17.25;2.75;;;4.60;99.90;;;;;;5033308;28;20025;-50
2022/01/28 03:34:55;;;;;;;16.70;2.75;;;4.50;99.90;;;;;;5032966;28;20090;-49
2022/01/28 03:37:22;;;;;;;18.83;2.85;;;4.50;99.90;;;;;;5023897;28;20084;-51
2022/01/28 03:39:48;;;;;;;22.52;2.50;;;4.50;99.90;;;;;;5028408;28;20057;-52
2022/01/28 03:42:13;;;;;;;18.35;2.40;;;4.50;99.90;;;;;;5015131;28;20041;-50
2022/01/28 03:44:39;;;;;;;18.58;2.13;;;4.50;99.90;;;;;;5031522;28;20045;-52
2022/01/28 03:47:05;;;;;;;24.65;2.97;;;4.50;99.90;;;;;;5017433;28;20038;-51
2022/01/28 03:49:30;;;;;;;21.38;2.95;;;4.50;99.90;;;;;;5013741;28;20034;-51
2022/01/28 03:51:56;;;;;;;15.88;2.25;;;4.50;99.90;;;;;;5000981;28;20050;-49
2022/01/28 03:54:22;;;;;;;15.57;2.70;;;4.60;99.90;;;;;;5016204;28;20041;-49
2022/01/28 03:56:48;;;;;;;15.05;2.40;;;4.60;99.90;;;;;;5023166;28;20124;-52
2022/01/28 03:59:13;;;;;;;16.75;2.25;;;4.60;99.90;;;;;;5013009;28;20045;-53
2022/01/28 04:01:40;;;;;;;15.60;2.38;;;4.60;99.90;;;;;;5015829;28;20049;-53
2022/01/28 04:12:21;;;;;;;16.92;2.75;;;4.50;99.90;;;;;;5024271;28;20543;-51
2022/01/28 04:17:27;;;;;;;22.15;2.78;;;4.50;99.90;;;;;;5021040;28;20385;-48
2022/01/28 04:19:53;;;;;;;18.67;2.47;;;4.50;99.90;;;;;;5019272;28;20039;-51
2022/01/28 04:22:20;;;;;;;22.30;3.38;;;4.50;99.90;;;;;;5022622;28;20037;-51
2022/01/28 04:24:47;;;;;;;18.98;3.00;;;4.50;99.90;;;;;;5016319;28;20075;-54
2022/01/28 04:27:12;;;;;;;23.98;2.80;;;4.50;99.90;;;;;;5028703;28;20501;-51
2022/01/28 04:29:38;;;;;;;22.30;2.50;;;4.50;99.90;;;;;;5016971;28;20077;-49
2022/01/28 04:32:05;;;;;;;17.50;2.28;;;4.50;99.90;;;;;;5014767;28;20044;-51
2022/01/28 04:34:31;;;;;;;19.50;3.08;;;4.50;99.90;;;;;;5017693;28;20032;-51
2022/01/28 04:37:41;;;;;;;22.75;2.60;;;4.40;99.90;;;;;;4994041;28;20045;-52
2022/01/28 04:50:25;;;;;;;24.92;2.95;;;4.10;99.90;;;;;;5023090;28;20040;-51
2022/01/28 04:58:09;;;;;;;26.02;2.83;;;3.90;99.90;;;;;;5028053;28;20042;-51
2022/01/28 05:13:52;;;;;;;19.05;3.38;;;3.70;99.90;;;;;;5024867;28;20041;-51
2022/01/28 05:27:07;;;;;;;21.13;2.90;;;3.50;99.90;;;;;;5019616;28;20493;-49
2022/01/28 05:29:32;;;;;;;20.63;3.00;;;3.50;99.90;;;;;;5012992;28;20112;-50
2022/01/28 05:31:58;;;;;;;24.83;3.00;;;3.50;99.90;;;;;;5022840;28;20132;-49
2022/01/28 05:34:26;;;;;;;18.98;2.70;;;3.60;99.90;;;;;;5027206;28;20499;-54
2022/01/28 05:36:52;;;;;;;21.17;3.58;;;3.60;99.90;;;;;;5003910;28;20099;-52
2022/01/28 05:39:18;;;;;;;25.08;3.65;;;3.60;99.90;;;;;;5014215;28;20136;-52
2022/01/28 05:41:44;;;;;;;15.05;2.90;;;3.60;99.90;;;;;;5017561;28;20113;-52
2022/01/28 05:44:10;;;;;;;19.58;3.47;;;3.70;99.90;;;;;;5022813;28;20172;-49
2022/01/28 05:46:35;;;;;;;19.10;3.15;;;3.70;99.90;;;;;;5021369;28;20384;-51
2022/01/28 05:49:01;;;;;;;18.77;3.40;;;3.80;99.90;;;;;;5030804;28;20048;-51
2022/01/28 05:51:27;;;;;;;21.80;3.25;;;3.80;99.90;;;;;;5025014;28;20501;-52
2022/01/28 05:53:58;;;;;;;21.00;3.20;;;3.80;99.90;;;;;;5010169;28;20037;-50
2022/01/28 05:56:25;;;;;;;21.42;3.25;;;3.80;99.90;;;;;;5015232;28;20061;-51
2022/01/28 05:58:52;;;;;;;20.50;3.72;;;3.90;99.90;;;;;;5013948;28;20042;-55
2022/01/28 06:01:17;;;;;;;17.40;3.03;;;3.90;99.90;;;;;;5027602;28;20038;-51
2022/01/28 06:03:44;;;;;;;18.92;4.10;;;3.90;99.90;;;;;;5015059;28;20043;-53
2022/01/28 06:06:18;;;;;;;22.77;3.15;;;3.90;99.90;;;;;;5026020;28;20048;-54
2022/01/28 06:08:44;;;;;;;28.95;3.33;;;3.90;99.90;;;;;;5027270;28;20041;-50
2022/01/28 06:11:09;;;;;;;28.58;3.35;;;3.80;99.90;;;;;;5016266;28;20038;-52
2022/01/28 06:13:35;;;;;;;25.08;3.00;;;3.80;99.90;;;;;;5027325;28;20044;-52
2022/01/28 06:16:01;;;;;;;28.08;3.90;;;3.80;99.90;;;;;;5025921;28;20056;-51
2022/01/28 06:18:26;;;;;;;23.10;3.05;;;3.70;99.90;;;;;;5022782;28;20626;-51
2022/01/28 06:20:52;;;;;;;25.58;3.72;;;3.80;99.90;;;;;;5005327;28;20089;-51
2022/01/28 06:23:18;;;;;;;21.15;3.10;;;3.70;99.90;;;;;;5027076;28;20042;-49
2022/01/28 06:25:44;;;;;;;23.35;3.50;;;3.60;99.90;;;;;;4997351;28;20042;-52
2022/01/28 06:28:10;;;;;;;27.20;3.63;;;3.60;99.90;;;;;;5017201;28;20100;-51
2022/01/28 06:30:35;;;;;;;27.23;3.40;;;3.50;99.90;;;;;;4997122;28;20042;-52
2022/01/28 06:33:01;;;;;;;20.15;3.13;;;3.50;99.90;;;;;;5014708;28;20485;-50
2022/01/28 06:35:27;;;;;;;27.88;3.75;;;3.40;99.90;;;;;;4996752;28;20041;-51
2022/01/28 06:37:52;;;;;;;26.10;3.90;;;3.30;99.90;;;;;;5014104;28;20387;-52
2022/01/28 06:40:18;;;;;;;23.80;3.55;;;3.30;99.90;;;;;;5014781;28;20056;-54
2022/01/28 06:42:44;;;;;;;19.58;3.38;;;3.20;99.90;;;;;;5014388;28;20449;-51
2022/01/28 06:45:11;;;;;;;27.80;3.60;;;3.20;99.90;;;;;;5012704;28;20037;-51
2022/01/28 06:47:37;;;;;;;22.30;3.45;;;3.10;99.90;;;;;;5014263;28;20040;-52
2022/01/28 06:50:05;;;;;;;18.73;3.75;;;3.10;99.90;;;;;;5013932;28;20584;-53
2022/01/28 06:52:32;;;;;;;29.15;4.05;;;3.00;99.90;;;;;;5014120;28;20033;-52
2022/01/28 06:54:58;;;;;;;26.50;4.05;;;3.00;99.90;;;;;;5013990;28;20124;-51
2022/01/28 06:57:23;;;;;;;24.67;4.22;;;2.90;99.90;;;;;;5014065;28;20300;-51
2022/01/28 06:59:49;;;;;;;30.08;3.85;;;2.90;99.90;;;;;;4996106;28;20061;-50
2022/01/28 07:02:15;;;;;;;27.50;3.60;;;2.90;99.90;;;;;;5014125;28;20042;-52
2022/01/28 07:04:40;;;;;;;32.15;4.10;;;2.80;99.90;;;;;;5013889;28;20156;-54
2022/01/28 07:07:06;;;;;;;26.42;4.00;;;2.80;99.90;;;;;;5013561;28;20030;-50
2022/01/28 07:09:34;;;;;;;21.02;3.42;;;2.80;99.90;;;;;;5013466;28;20034;-52
2022/01/28 07:12:00;;;;;;;21.05;3.40;;;2.80;99.90;;;;;;5013499;28;20034;-51
2022/01/28 07:14:25;;;;;;;22.48;3.25;;;2.80;99.90;;;;;;5013509;28;20076;-52
2022/01/28 07:16:51;;;;;;;19.75;3.63;;;2.80;99.90;;;;;;5013904;28;20042;-51
2022/01/28 07:19:17;;;;;;;21.30;3.60;;;2.80;99.90;;;;;;5013504;28;20048;-52
2022/01/28 07:21:42;;;;;;;24.73;3.75;;;2.80;99.90;;;;;;5013491;28;20042;-48
2022/01/28 07:24:08;;;;;;;33.53;4.20;;;2.70;99.90;;;;;;5013278;28;20038;-50
2022/01/28 07:26:33;;;;;;;19.55;3.70;;;2.70;99.90;;;;;;5013436;28;20049;-51
2022/01/28 07:28:59;;;;;;;19.98;3.72;;;2.80;99.90;;;;;;5013548;28;20960;-52
2022/01/28 07:31:25;;;;;;;29.52;3.67;;;2.70;99.90;;;;;;5013664;28;20069;-51
2022/01/28 07:33:51;;;;;;;27.05;4.65;;;2.70;99.90;;;;;;5013223;28;20041;-52
2022/01/28 07:36:16;;;;;;;32.45;3.72;;;2.60;99.90;;;;;;4995860;28;20034;-52
2022/01/28 07:38:42;;;;;;;33.45;3.45;;;2.60;99.90;;;;;;5013147;28;20033;-50
2022/01/28 07:41:08;;;;;;;23.55;3.60;;;2.60;99.90;;;;;;5013464;28;20048;-51
2022/01/28 07:43:37;;;;;;;21.70;3.35;;;2.60;99.90;;;;;;5013172;28;20496;-49
2022/01/28 07:46:04;;;;;;;26.25;3.40;;;2.60;99.90;;;;;;5012832;28;20049;-53
2022/01/28 07:48:30;;;;;;;28.75;3.67;;;2.70;99.90;;;;;;5012296;28;20030;-49
2022/01/28 07:50:56;;;;;;;24.23;3.05;;;2.60;99.90;;;;;;4993975;28;20041;-52
2022/01/28 07:53:22;;;;;;;25.08;3.60;;;2.60;99.90;;;;;;5012882;28;20049;-53
2022/01/28 07:55:48;;;;;;;15.95;2.75;;;2.60;99.90;;;;;;5013099;28;20442;-52
2022/01/28 07:58:13;;;;;;;25.92;3.80;;;2.60;99.90;;;;;;4995333;28;20088;-49
2022/01/28 08:00:39;;;;;;;24.52;3.90;;;2.60;99.90;;;;;;4995051;28;20138;-54
2022/01/28 08:03:05;;;;;;;22.02;3.78;;;2.60;99.90;;;;;;5013059;28;20041;-52
2022/01/28 08:05:30;;;;;;;25.65;3.88;;;2.60;99.90;;;;;;5012723;28;20474;-52
2022/01/28 08:07:56;;;;;;;21.10;3.35;;;2.60;99.90;;;;;;5012660;28;20042;-53
2022/01/28 08:10:22;;;;;;;25.73;3.92;;;2.70;99.90;;;;;;5010667;28;20026;-53
2022/01/28 08:12:51;;;;;;;25.17;3.42;;;2.70;99.90;;;;;;5011158;28;20038;-50
2022/01/28 08:15:18;;;;;;;22.73;3.47;;;2.70;99.90;;;;;;5012412;28;20042;-51
2022/01/28 08:17:45;;;;;;;22.63;3.58;;;2.70;99.90;;;;;;5004061;28;20046;-53
2022/01/28 08:20:12;;;;;;;26.92;3.90;;;2.70;99.90;;;;;;5005120;28;20515;-51
2022/01/28 08:22:51;;;;;;;28.30;3.67;;;2.70;99.90;;;;;;5003878;28;20044;-52
2022/01/28 08:25:18;;;;;;;31.17;4.68;;;2.70;99.90;;;;;;5003763;28;20067;-52
2022/01/28 08:27:45;;;;;;;27.35;5.05;;;2.70;99.90;;;;;;5017340;28;20053;-53
2022/01/28 08:30:13;;;;;;;20.65;4.28;;;2.70;99.90;;;;;;5024666;28;20473;-53
2022/01/28 08:32:38;;;;;;;35.22;6.88;;;2.80;99.90;;;;;;5023936;28;20461;-51
2022/01/28 08:35:05;;;;;;;39.13;9.80;;;2.60;99.90;;;;;;5024851;28;20033;-54
2022/01/28 08:37:31;;;;;;;41.05;11.07;;;2.60;99.90;;;;;;5024185;28;20417;-48
2022/01/28 08:39:57;;;;;;;50.63;10.38;;;2.70;99.90;;;;;;5023677;28;20184;-47
2022/01/28 08:42:22;;;;;;;45.58;10.40;;;2.70;99.90;;;;;;5025114;28;20117;-50
2022/01/28 08:44:48;;;;;;;32.17;9.75;;;2.80;99.90;;;;;;5024342;28;20048;-52
2022/01/28 08:47:14;;;;;;;38.13;8.55;;;2.90;99.90;;;;;;5023504;28;20087;-55
2022/01/28 08:49:39;;;;;;;32.22;6.65;;;2.90;99.90;;;;;;5023550;28;20037;-53
2022/01/28 08:52:06;;;;;;;37.53;7.18;;;2.90;99.90;;;;;;5024384;28;20057;-51
2022/01/28 08:54:32;;;;;;;36.55;6.82;;;3.00;99.90;;;;;;5023530;28;20144;-51
2022/01/28 08:56:57;;;;;;;34.88;6.30;;;3.00;99.90;;;;;;5024070;28;20065;-52
2022/01/28 08:59:23;;;;;;;35.00;6.65;;;3.00;99.90;;;;;;5023886;28;20064;-50
2022/01/28 09:01:48;;;;;;;31.35;5.88;;;3.10;99.90;;;;;;5024361;28;20095;-51
2022/01/28 09:04:14;;;;;;;37.50;6.47;;;3.20;99.90;;;;;;5022202;28;20037;-51
2022/01/28 09:06:40;;;;;;;36.30;6.00;;;3.40;99.90;;;;;;5022763;28;20052;-49
2022/01/28 09:09:07;;;;;;;26.70;5.28;;;3.50;99.90;;;;;;5022658;28;20044;-53
2022/01/28 09:12:27;;;;;;;26.70;5.65;;;3.60;99.90;;;;;;5023170;28;20540;-51
2022/01/28 09:14:22;;;;;;;33.10;6.78;;;3.70;99.90;;;;;;5015259;28;20049;-49
2022/01/28 09:16:48;;;;;;;33.83;6.57;;;3.80;99.90;;;;;;5020185;28;20550;-52
2022/01/28 09:19:14;;;;;;;29.90;7.30;;;3.90;99.90;;;;;;4987711;28;20056;-54
2022/01/28 09:21:40;;;;;;;30.48;7.40;;;4.00;99.90;;;;;;5021122;28;20120;-53
2022/01/28 09:24:06;;;;;;;35.55;5.80;;;4.10;99.90;;;;;;5022663;28;20160;-52
2022/01/28 09:26:33;;;;;;;30.15;5.75;;;4.20;99.90;;;;;;5022631;28;20523;-53
2022/01/28 09:28:59;;;;;;;31.20;4.70;;;4.20;99.90;;;;;;5022865;28;20584;-53
2022/01/28 09:31:25;;;;;;;30.88;4.47;;;4.30;99.90;;;;;;5023159;28;20128;-53
2022/01/28 09:33:51;;;;;;;27.10;4.95;;;4.40;99.90;;;;;;5022895;28;20089;-50
2022/01/28 09:36:16;;;;;;;35.97;5.32;;;4.50;99.90;;;;;;5023707;28;20092;-53
2022/01/28 09:38:42;;;;;;;25.58;4.68;;;4.60;99.90;;;;;;5021325;28;20029;-51
2022/01/28 09:41:09;;;;;;;27.05;4.75;;;4.70;99.90;;;;;;5022485;28;20080;-54
2022/01/28 09:43:35;;;;;;;26.75;4.45;;;4.80;99.90;;;;;;5023096;28;20048;-52
2022/01/28 09:46:03;;;;;;;26.38;4.93;;;4.80;99.90;;;;;;5023214;28;20037;-54
2022/01/28 09:48:30;;;;;;;28.48;5.05;;;4.80;99.90;;;;;;5021929;28;20033;-51
2022/01/28 09:51:00;;;;;;;30.42;4.28;;;4.90;99.90;;;;;;5023429;28;20503;-49
2022/01/28 09:53:26;;;;;;;31.27;4.30;;;4.90;99.90;;;;;;5022368;28;20076;-52
2022/01/28 09:55:52;;;;;;;25.67;4.15;;;4.90;99.90;;;;;;5022488;28;20202;-51
2022/01/28 09:58:18;;;;;;;30.13;4.80;;;4.90;99.90;;;;;;5023140;28;20041;-55
2022/01/28 10:00:44;;;;;;;22.23;3.80;;;5.00;99.90;;;;;;5022820;28;20392;-53
2022/01/28 10:03:12;;;;;;;27.65;3.58;;;5.00;99.90;;;;;;4989325;28;20041;-50
2022/01/28 10:05:44;;;;;;;29.20;4.65;;;5.00;99.90;;;;;;5022607;28;20392;-52
2022/01/28 10:08:14;;;;;;;23.25;3.42;;;5.00;99.90;;;;;;5021711;28;20030;-50
2022/01/28 10:10:48;;;;;;;18.90;4.18;;;5.00;99.90;;;;;;5022404;28;20045;-51
2022/01/28 10:13:55;;;;;;;27.10;4.57;;;5.10;99.90;;;;;;5022534;28;20033;-52
2022/01/28 10:16:25;;;;;;;28.45;5.78;;;5.10;99.90;;;;;;5022429;28;20558;-52
2022/01/28 10:18:56;;;;;;;35.50;7.57;;;5.10;99.90;;;;;;5021719;28;20041;-51
2022/01/28 10:21:28;;;;;;;32.05;8.02;;;5.20;99.90;;;;;;5022341;28;20366;-52
2022/01/28 10:24:02;;;;;;;38.78;9.02;;;5.30;99.90;;;;;;5022563;28;20713;-53
2022/01/28 10:26:34;;;;;;;28.23;6.82;;;5.40;99.90;;;;;;5022236;28;20065;-50
2022/01/28 10:29:01;;;;;;;23.75;5.93;;;5.50;99.90;;;;;;5022299;28;20396;-50
2022/01/28 10:31:57;;;;;;;28.65;4.72;;;5.60;99.90;;;;;;5006547;28;20065;-51
2022/01/28 10:34:30;;;;;;;28.88;4.55;;;5.70;99.90;;;;;;4993365;28;20042;-53
2022/01/28 10:37:25;;;;;;;26.60;4.93;;;5.70;99.90;;;;;;5021901;28;20094;-50
2022/01/28 10:39:52;;;;;;;34.38;5.22;;;6.00;99.90;;;;;;5021993;28;20404;-51
2022/01/28 10:42:25;;;;;;;31.05;7.05;;;6.30;99.90;;;;;;5004717;28;20045;-50
2022/01/28 10:45:00;;;;;;;29.50;5.00;;;6.40;99.90;;;;;;5022498;28;20144;-54
2022/01/28 10:47:40;;;;;;;30.83;6.05;;;6.40;99.90;;;;;;5025547;28;20041;-52
2022/01/28 10:50:29;;;;;;;23.00;5.03;;;6.40;99.90;;;;;;5026580;28;20032;-53
2022/01/28 10:53:19;;;;;;;28.08;5.75;;;6.40;99.90;;;;;;5026583;28;20033;-52
2022/01/28 10:55:58;;;;;;;28.55;6.10;;;6.30;99.90;;;;;;5024060;28;20045;-51
2022/01/28 10:58:25;;;;;;;27.50;4.38;;;6.30;99.90;;;;;;5025783;28;20045;-52
2022/01/28 11:00:59;;;;;;;26.13;4.45;;;6.40;99.90;;;;;;5025522;28;20034;-50
2022/01/28 11:03:27;;;;;;;23.17;4.72;;;6.40;99.90;;;;;;5024466;28;20132;-51
2022/01/28 11:06:01;;;;;;;22.88;4.15;;;6.50;99.90;;;;;;5026593;28;20345;-54
2022/01/28 11:08:30;;;;;;;27.38;5.63;;;6.70;99.90;;;;;;5022403;28;20077;-51
2022/01/28 11:10:56;;;;;;;36.83;7.30;;;6.60;99.90;;;;;;5027764;28;20072;-51
2022/01/28 11:13:22;;;;;;;36.83;7.70;;;6.70;99.90;;;;;;5026014;28;20084;-53
2022/01/28 11:15:48;;;;;;;40.03;8.60;;;6.60;99.90;;;;;;5026240;28;20041;-53
2022/01/28 11:18:15;;;;;;;33.75;7.32;;;6.70;99.90;;;;;;5031486;28;20044;-52
2022/01/28 11:21:04;;;;;;;32.42;6.45;;;6.70;99.90;;;;;;5029420;28;20452;-52
2022/01/28 11:23:53;;;;;;;30.30;5.82;;;6.70;99.90;;;;;;5025983;28;20045;-52
2022/01/28 11:26:56;;;;;;;30.75;5.47;;;6.60;99.90;;;;;;5030211;28;20053;-49
2022/01/28 11:29:27;;;;;;;29.45;5.60;;;6.60;99.90;;;;;;5028763;28;20046;-50
2022/01/28 11:31:58;;;;;;;26.67;5.22;;;6.60;99.90;;;;;;5028892;28;20101;-52
2022/01/28 11:34:27;;;;;;;26.65;5.07;;;6.70;99.90;;;;;;5031656;28;20056;-54
2022/01/28 11:36:55;;;;;;;36.95;6.60;;;6.60;99.90;;;;;;5031626;28;20041;-50
2022/01/28 11:39:36;;;;;;;28.23;6.25;;;6.60;99.90;;;;;;5031014;28;20045;-50
2022/01/28 11:42:10;;;;;;;30.88;5.90;;;6.60;99.90;;;;;;5030855;28;20127;-51
2022/01/28 11:44:39;;;;;;;;;;;6.50;99.90;;;;;;5032521;28;20045;-53
2022/01/28 11:47:05;;;;;;;24.42;5.63;;;6.50;99.90;;;;;;5031615;28;19925;-51
2022/01/28 11:49:31;;;;;;;24.08;4.30;;;6.60;99.90;;;;;;5032367;28;20029;-52
2022/01/28 11:51:57;;;;;;;27.65;4.07;;;6.60;99.90;;;;;;5012856;28;20463;-53
2022/01/28 11:54:34;;;;;;;22.48;3.88;;;6.60;99.90;;;;;;5027550;28;20038;-51
2022/01/28 11:57:14;;;;;;;28.13;3.90;;;6.60;99.90;;;;;;5030192;28;20465;-49
2022/01/28 11:59:40;;;;;;;26.25;4.85;;;6.70;99.90;;;;;;5029354;28;20748;-55
2022/01/28 12:02:07;;;;;;;26.83;4.35;;;6.70;99.90;;;;;;5031256;28;20064;-54
2022/01/28 12:04:40;;;;;;;29.90;5.38;;;6.70;99.90;;;;;;5030019;28;20619;-48
2022/01/28 12:07:13;;;;;;;31.88;4.80;;;6.80;99.90;;;;;;5030848;28;20045;-50
2022/01/28 12:09:40;;;;;;;32.38;5.45;;;7.20;99.90;;;;;;5029763;28;20037;-52
2022/01/28 12:12:11;;;;;;;32.65;5.22;;;7.50;99.90;;;;;;5032440;28;20042;-52
2022/01/28 12:14:58;;;;;;;22.95;4.22;;;7.70;99.90;;;;;;5032442;28;20045;-52
2022/01/28 12:17:29;;;;;;;25.77;3.85;;;8.00;99.90;;;;;;5032284;28;20041;-53
2022/01/28 12:20:18;;;;;;;14.80;2.67;;;8.30;99.90;;;;;;5032091;28;20451;-47
2022/01/28 12:23:11;;;;;;;21.67;3.45;;;8.50;99.90;;;;;;5031006;28;20049;-51
2022/01/28 12:25:37;;;;;;;28.65;5.18;;;8.60;99.90;;;;;;5031977;28;20128;-53
2022/01/28 12:28:24;;;;;;;29.77;5.50;;;8.80;99.90;;;;;;5031487;28;20145;-54
2022/01/28 12:31:18;;;;;;;28.35;4.75;;;9.10;99.90;;;;;;5026775;28;20112;-52
2022/01/28 12:33:50;;;;;;;19.92;3.58;;;9.10;99.90;;;;;;5023167;28;20112;-54
2022/01/28 12:36:33;;;;;;;23.30;2.95;;;9.10;99.90;;;;;;5012369;28;20422;-54
2022/01/28 12:39:21;;;;;;;23.25;3.13;;;9.10;99.90;;;;;;5014240;28;20057;-55
2022/01/28 12:42:03;;;;;;;18.33;3.13;;;9.10;99.90;;;;;;5015303;28;20445;-55
2022/01/28 12:44:32;;;;;;;23.65;3.00;;;9.10;99.90;;;;;;4993287;28;20081;-53
2022/01/28 12:47:01;;;;;;;15.68;3.10;;;9.20;99.90;;;;;;5014409;28;20084;-54
2022/01/28 12:49:33;;;;;;;20.25;3.15;;;9.30;99.90;;;;;;5016353;28;20497;-53
2022/01/28 12:52:02;;;;;;;18.80;2.70;;;9.30;99.90;;;;;;5011434;28;20060;-54
2022/01/28 12:54:45;;;;;;;23.88;2.90;;;9.30;99.90;;;;;;5014017;28;20048;-52
2022/01/28 12:57:14;;;;;;;22.83;3.30;;;9.40;99.90;;;;;;5013480;28;20493;-52
2022/01/28 12:59:45;;;;;;;21.42;3.20;;;9.50;99.90;;;;;;5015701;28;20052;-54
2022/01/28 13:02:11;;;;;;;20.92;3.10;;;9.60;99.90;;;;;;5012814;28;20051;-52
2022/01/28 13:10:28;;;;;;;27.40;3.75;;;9.30;99.90;;;;;;5014558;28;20408;-48
2022/01/28 13:13:06;;;;;;;19.05;3.13;;;9.30;99.90;;;;;;5015049;28;20042;-52
2022/01/28 13:15:31;;;;;;;24.48;3.90;;;9.10;99.90;;;;;;5012995;28;20116;-49
2022/01/28 13:17:59;;;;;;;22.48;3.40;;;9.00;99.90;;;;;;5009840;28;20128;-52
2022/01/28 13:20:41;;;;;;;22.60;3.35;;;8.90;99.90;;;;;;5016748;28;20103;-54
2022/01/28 13:23:09;;;;;;;20.15;2.83;;;9.00;99.90;;;;;;5008243;28;20128;-51
2022/01/28 13:25:35;;;;;;;20.10;3.15;;;9.00;99.90;;;;;;5021507;28;20559;-52
2022/01/28 13:28:04;;;;;;;19.92;2.58;;;9.20;99.90;;;;;;5031043;28;20055;-52
2022/01/28 13:30:34;;;;;;;12.02;2.72;;;9.20;99.90;;;;;;5013541;28;20041;-53
2022/01/28 13:33:06;;;;;;;24.23;3.50;;;9.30;99.90;;;;;;5020389;28;20477;-54
2022/01/28 13:35:34;;;;;;;17.55;3.13;;;9.30;99.90;;;;;;5021490;28;20106;-50
2022/01/28 13:38:05;;;;;;;20.85;3.95;;;9.40;99.90;;;;;;5030808;28;20037;-53
2022/01/28 13:40:36;;;;;;;18.65;2.90;;;9.30;99.90;;;;;;5030666;28;20037;-50
2022/01/28 13:43:18;;;;;;;17.77;2.38;;;9.40;99.90;;;;;;5030951;28;20038;-52
2022/01/28 13:45:58;;;;;;;15.82;2.28;;;9.30;99.90;;;;;;5027522;28;20120;-51
2022/01/28 13:48:33;;;;;;;16.95;2.92;;;9.40;99.90;;;;;;5009693;28;20109;-50
2022/01/28 13:51:16;;;;;;;19.70;4.00;;;9.50;99.90;;;;;;5018727;28;20385;-51
2022/01/28 13:56:29;;;;;;;15.50;2.63;;;9.50;99.90;;;;;;5012559;28;20049;-53
2022/01/28 13:58:55;;;;;;;20.98;2.70;;;9.40;99.90;;;;;;4995286;28;20382;-51
2022/01/28 14:01:23;;;;;;;17.20;3.00;;;9.30;99.90;;;;;;5012434;28;20038;-50
2022/01/28 14:03:52;;;;;;;20.10;3.22;;;9.00;99.90;;;;;;5024169;28;20045;-51
2022/01/28 14:06:22;;;;;;;16.55;2.70;;;9.00;99.90;;;;;;5030499;28;20125;-52
2022/01/28 14:08:54;;;;;;;15.18;2.20;;;8.90;99.90;;;;;;5014045;28;20044;-52
2022/01/28 14:11:33;;;;;;;16.13;2.22;;;8.80;99.90;;;;;;5019808;28;20392;-54
2022/01/28 14:16:47;;;;;;;23.08;4.60;;;8.80;99.90;;;;;;5019303;28;20385;-49
2022/01/28 14:19:14;;;;;;;26.08;5.22;;;8.70;99.90;;;;;;4999227;28;20042;-49
2022/01/28 14:21:44;;;;;;;31.23;7.38;;;8.70;99.90;;;;;;5015160;28;20030;-50
2022/01/28 14:24:14;;;;;;;33.38;9.35;;;8.80;99.90;;;;;;5017598;28;20036;-50
2022/01/28 14:26:42;;;;;;;23.92;5.70;;;8.70;99.90;;;;;;5024094;28;20034;-50
2022/01/28 14:31:37;;;;;;;23.90;5.55;;;8.50;99.90;;;;;;5030621;28;20038;-49
2022/01/28 14:34:03;;;;;;;19.40;3.85;;;8.50;99.90;;;;;;5033806;28;20037;-52
2022/01/28 14:36:29;;;;;;;16.92;2.58;;;8.50;99.90;;;;;;5032790;28;20041;-54